createdAt,value
2023-05-11T00:00:03.068Z,9.747333
2023-05-11T00:01:14.800Z,9.747363
2023-05-11T00:02:03.022Z,9.747267
2023-05-11T00:03:03.118Z,9.747289
2023-05-11T00:04:03.124Z,9.747225
2023-05-11T00:05:17.289Z,9.747200
2023-05-11T00:06:02.990Z,9.747241
2023-05-11T00:07:02.986Z,9.747257
2023-05-11T00:08:02.975Z,9.747343
2023-05-11T00:09:03.001Z,9.747279
2023-05-11T00:10:02.988Z,9.747321
2023-05-11T00:11:02.955Z,9.747314
2023-05-11T00:12:02.931Z,9.747308
2023-05-11T00:13:02.937Z,9.747371
2023-05-11T00:14:02.963Z,9.747206
2023-05-11T00:15:02.919Z,9.747375
2023-05-11T00:16:02.921Z,9.747341
2023-05-11T00:17:02.902Z,9.747334
2023-05-11T00:18:02.996Z,9.747228
2023-05-11T00:19:03.012Z,9.747339
2023-05-11T00:20:02.894Z,9.747415
2023-05-11T00:21:02.869Z,9.747396
2023-05-11T00:22:02.860Z,9.747458
2023-05-11T00:23:02.886Z,9.747332
2023-05-11T00:24:02.887Z,9.747326
2023-05-11T00:25:02.836Z,9.747354
2023-05-11T00:26:02.840Z,9.747340
2023-05-11T00:27:02.817Z,9.747328
2023-05-11T00:28:02.850Z,9.747434
2023-05-11T00:29:02.804Z,9.747448
2023-05-11T00:30:02.791Z,9.747396
2023-05-11T00:31:02.832Z,9.747335
2023-05-11T00:32:02.780Z,9.747434
2023-05-11T00:33:02.827Z,9.747366
2023-05-11T00:34:02.779Z,9.747337
2023-05-11T00:35:02.753Z,9.747350
2023-05-11T00:36:02.767Z,9.747340
2023-05-11T00:37:02.782Z,9.747402
2023-05-11T00:38:02.756Z,9.747409
2023-05-11T00:39:02.735Z,9.747475
2023-05-11T00:40:02.718Z,9.747514
2023-05-11T00:41:02.714Z,9.747396
2023-05-11T00:42:02.724Z,9.747458
2023-05-11T00:43:02.721Z,9.747582
2023-05-11T00:44:02.683Z,9.747305
2023-05-11T00:45:02.689Z,9.747238
2023-05-11T00:46:02.675Z,9.747401
2023-05-11T00:47:02.721Z,9.747396
2023-05-11T00:48:02.683Z,9.747173
2023-05-11T00:49:02.641Z,9.747129
2023-05-11T00:50:02.663Z,9.747110
2023-05-11T00:51:02.624Z,9.747355
2023-05-11T00:52:02.675Z,9.747469
2023-05-11T00:53:02.619Z,9.747385
2023-05-11T00:54:02.613Z,9.747313
2023-05-11T00:55:02.607Z,9.747381
2023-05-11T00:56:02.624Z,9.747388
2023-05-11T00:57:02.613Z,9.747369
2023-05-11T00:58:02.580Z,9.747298
2023-05-11T00:59:02.564Z,9.747355
2023-05-11T01:00:02.586Z,9.747238
2023-05-11T01:01:02.608Z,9.747335
2023-05-11T01:02:02.626Z,9.747342
2023-05-11T01:03:02.580Z,9.747311
2023-05-11T01:04:02.522Z,9.747378
2023-05-11T01:05:02.542Z,9.747439
2023-05-11T01:06:02.542Z,9.747478
2023-05-11T01:07:02.524Z,9.747474
2023-05-11T01:08:02.513Z,9.747345
2023-05-11T01:09:02.491Z,9.747363
2023-05-11T01:10:02.511Z,9.747309
2023-05-11T01:11:02.508Z,9.747392
2023-05-11T01:12:02.475Z,9.747350
2023-05-11T01:13:02.451Z,9.747409
2023-05-11T01:14:02.463Z,9.747345
2023-05-11T01:15:02.482Z,9.747448
2023-05-11T01:16:02.447Z,9.747437
2023-05-11T01:17:26.152Z,9.747376
2023-05-11T01:18:44.668Z,9.747365
2023-05-11T01:19:03.588Z,9.747432
2023-05-11T01:20:02.425Z,9.747487
2023-05-11T01:21:17.241Z,9.747410
2023-05-11T01:22:02.387Z,9.747307
2023-05-11T01:23:02.378Z,9.747239
2023-05-11T01:24:13.276Z,9.747354
2023-05-11T01:25:29.624Z,9.747375
2023-05-11T01:26:03.344Z,9.747310
2023-05-11T01:27:02.351Z,9.747405
2023-05-11T01:28:02.350Z,9.747362
2023-05-11T01:29:02.364Z,9.747409
2023-05-11T01:30:28.119Z,9.747367
2023-05-11T01:31:02.320Z,9.747364
2023-05-11T01:32:17.252Z,9.747246
2023-05-11T01:33:02.349Z,9.747386
2023-05-11T01:34:44.155Z,9.747457
2023-05-11T01:35:02.281Z,9.747332
2023-05-11T01:36:04.441Z,9.747289
2023-05-11T01:37:02.265Z,9.747461
2023-05-11T01:38:02.284Z,9.747370
2023-05-11T01:39:02.282Z,9.747305
2023-05-11T01:40:02.238Z,9.747400
2023-05-11T01:41:02.240Z,9.747414
2023-05-11T01:42:02.225Z,9.747396
2023-05-11T01:43:02.246Z,9.747365
2023-05-11T01:44:02.225Z,9.747407
2023-05-11T01:45:02.217Z,9.747379
2023-05-11T01:46:02.242Z,9.747317
2023-05-11T01:47:02.206Z,9.747347
2023-05-11T01:48:02.229Z,9.747443
2023-05-11T01:49:02.186Z,9.747561
2023-05-11T01:50:02.179Z,9.747360
2023-05-11T01:51:02.292Z,9.747364
2023-05-11T01:52:02.785Z,9.747347
2023-05-11T01:53:46.614Z,9.747323
2023-05-11T01:54:47.040Z,9.747232
2023-05-11T01:55:16.822Z,9.747251
2023-05-11T01:56:04.739Z,9.747216
2023-05-11T01:57:31.691Z,9.747169
2023-05-11T01:58:02.118Z,9.747169
2023-05-11T01:59:02.102Z,9.747339
2023-05-11T02:00:02.101Z,9.747342
2023-05-11T02:01:02.118Z,9.747390
2023-05-11T02:02:02.124Z,9.747325
2023-05-11T02:03:02.183Z,9.747314
2023-05-11T02:04:02.075Z,9.747388
2023-05-11T02:05:02.061Z,9.747396
2023-05-11T02:06:02.090Z,9.747354
2023-05-11T02:07:02.067Z,9.747478
2023-05-11T02:08:02.032Z,9.747300
2023-05-11T02:09:02.024Z,9.747238
2023-05-11T02:10:02.108Z,9.747306
2023-05-11T02:11:02.038Z,9.747306
2023-05-11T02:12:02.013Z,9.747267
2023-05-11T02:13:02.005Z,9.747365
2023-05-11T02:14:02.005Z,9.747434
2023-05-11T02:15:01.995Z,9.747379
2023-05-11T02:16:02.035Z,9.747396
2023-05-11T02:17:01.999Z,9.747288
2023-05-11T02:18:02.020Z,9.747222
2023-05-11T02:19:02.098Z,9.747330
2023-05-11T02:20:01.961Z,9.747280
2023-05-11T02:21:01.964Z,9.747282
2023-05-11T02:22:01.927Z,9.747318
2023-05-11T02:23:01.935Z,9.747493
2023-05-11T02:24:01.904Z,9.747342
2023-05-11T02:25:01.928Z,9.747259
2023-05-11T02:26:01.903Z,9.747247
2023-05-11T02:27:01.893Z,9.747360
2023-05-11T02:28:01.873Z,9.747327
2023-05-11T02:29:01.870Z,9.747307
2023-05-11T02:30:01.902Z,9.747147
2023-05-11T02:31:01.869Z,9.747307
2023-05-11T02:32:01.850Z,9.747232
2023-05-11T02:33:01.893Z,9.747241
2023-05-11T02:34:01.828Z,9.747321
2023-05-11T02:35:01.872Z,9.747220
2023-05-11T02:36:01.815Z,9.747324
2023-05-11T02:37:01.797Z,9.747348
2023-05-11T02:38:01.806Z,9.747308
2023-05-11T02:39:01.806Z,9.747078
2023-05-11T02:40:01.813Z,9.747329
2023-05-11T02:41:01.771Z,9.747531
2023-05-11T02:42:01.760Z,9.747581
2023-05-11T02:43:01.763Z,9.747654
2023-05-11T02:44:30.352Z,9.747639
2023-05-11T02:45:24.935Z,9.747690
2023-05-11T02:46:11.025Z,9.747744
2023-05-11T02:47:01.763Z,9.747515
2023-05-11T02:48:25.378Z,9.747635
2023-05-11T02:49:02.728Z,9.747698
2023-05-11T02:50:16.391Z,9.747695
2023-05-11T02:51:11.878Z,9.747670
2023-05-11T02:52:01.676Z,9.747669
2023-05-11T02:53:59.144Z,9.747493
2023-05-11T02:54:01.666Z,9.747391
2023-05-11T02:55:16.258Z,9.747534
2023-05-11T02:56:12.207Z,9.747559
2023-05-11T02:57:12.857Z,9.747606
2023-05-11T02:58:01.739Z,9.747532
2023-05-11T02:59:01.623Z,9.747570
2023-05-11T03:00:16.443Z,9.747577
2023-05-11T03:01:01.742Z,9.747627
2023-05-11T03:02:13.595Z,9.747449
2023-05-11T03:03:28.297Z,9.747602
2023-05-11T03:04:01.582Z,9.747605
2023-05-11T03:05:01.580Z,9.747677
2023-05-11T03:06:01.614Z,9.747600
2023-05-11T03:07:01.590Z,9.747622
2023-05-11T03:08:15.788Z,9.747691
2023-05-11T03:09:01.560Z,9.747652
2023-05-11T03:10:01.549Z,9.747452
2023-05-11T03:11:01.532Z,9.747611
2023-05-11T03:12:01.552Z,9.747637
2023-05-11T03:13:48.152Z,9.747622
2023-05-11T03:14:01.509Z,9.747673
2023-05-11T03:15:15.744Z,9.747578
2023-05-11T03:16:35.186Z,9.747668
2023-05-11T03:17:19.800Z,9.747588
2023-05-11T03:18:01.501Z,9.747692
2023-05-11T03:19:01.618Z,9.747570
2023-05-11T03:20:01.564Z,9.747803
2023-05-11T03:21:01.484Z,9.747782
2023-05-11T03:22:09.309Z,9.747499
2023-05-11T03:23:01.445Z,9.747622
2023-05-11T03:24:01.444Z,9.747666
2023-05-11T03:25:01.428Z,9.747656
2023-05-11T03:26:01.445Z,9.747673
2023-05-11T03:27:01.449Z,9.747631
2023-05-11T03:28:01.415Z,9.747543
2023-05-11T03:29:01.405Z,9.747577
2023-05-11T03:30:01.383Z,9.747590
2023-05-11T03:31:01.415Z,9.747569
2023-05-11T03:32:01.435Z,9.747565
2023-05-11T03:33:01.394Z,9.747541
2023-05-11T03:34:01.385Z,9.747510
2023-05-11T03:35:01.367Z,9.747499
2023-05-11T03:36:01.374Z,9.747502
2023-05-11T03:37:01.343Z,9.747476
2023-05-11T03:38:01.352Z,9.747476
2023-05-11T03:39:01.326Z,9.747496
2023-05-11T03:40:01.309Z,9.747561
2023-05-11T03:41:01.345Z,9.747556
2023-05-11T03:42:02.307Z,9.747540
2023-05-11T03:43:01.281Z,9.747534
2023-05-11T03:44:01.280Z,9.747607
2023-05-11T03:45:01.303Z,9.747455
2023-05-11T03:46:01.322Z,9.747542
2023-05-11T03:47:01.256Z,9.747515
2023-05-11T03:48:01.312Z,9.747535
2023-05-11T03:49:01.267Z,9.747515
2023-05-11T03:50:01.273Z,9.747460
2023-05-11T03:51:01.235Z,9.747483
2023-05-11T03:52:01.223Z,9.747437
2023-05-11T03:53:01.228Z,9.747560
2023-05-11T03:54:01.236Z,9.747419
2023-05-11T03:55:01.214Z,9.747513
2023-05-11T03:56:01.171Z,9.747527
2023-05-11T03:57:01.178Z,9.747400
2023-05-11T03:58:04.203Z,9.747298
2023-05-11T03:59:01.185Z,9.747366
2023-05-11T04:00:01.177Z,9.747334
2023-05-11T04:01:01.142Z,9.747369
2023-05-11T04:02:01.138Z,9.747379
2023-05-11T04:03:01.212Z,9.747419
2023-05-11T04:04:01.324Z,9.747407
2023-05-11T04:05:01.108Z,9.747341
2023-05-11T04:06:01.110Z,9.747252
2023-05-11T04:07:01.113Z,9.747416
2023-05-11T04:08:01.091Z,9.747410
2023-05-11T04:09:01.099Z,9.747384
2023-05-11T04:10:01.076Z,9.747298
2023-05-11T04:11:01.070Z,9.747347
2023-05-11T04:12:01.070Z,9.747399
2023-05-11T04:13:01.087Z,9.747407
2023-05-11T04:14:01.068Z,9.747443
2023-05-11T04:15:01.033Z,9.747392
2023-05-11T04:16:01.059Z,9.747431
2023-05-11T04:17:01.013Z,9.747401
2023-05-11T04:18:01.073Z,9.747479
2023-05-11T04:19:01.160Z,9.747477
2023-05-11T04:20:00.996Z,9.747387
2023-05-11T04:21:01.001Z,9.747552
2023-05-11T04:22:00.982Z,9.747423
2023-05-11T04:23:00.998Z,9.747378
2023-05-11T04:24:00.966Z,9.747377
2023-05-11T04:25:00.961Z,9.747429
2023-05-11T04:26:00.952Z,9.747440
2023-05-11T04:27:00.955Z,9.747404
2023-05-11T04:28:00.958Z,9.747466
2023-05-11T04:29:00.930Z,9.747438
2023-05-11T04:30:00.923Z,9.747424
2023-05-11T04:31:01.002Z,9.747378
2023-05-11T04:32:00.924Z,9.747528
2023-05-11T04:33:00.959Z,9.747480
2023-05-11T04:34:00.885Z,9.747459
2023-05-11T04:35:00.886Z,9.747485
2023-05-11T04:36:00.874Z,9.747473
2023-05-11T04:37:00.894Z,9.747409
2023-05-11T04:38:00.886Z,9.747412
2023-05-11T04:39:00.850Z,9.747476
2023-05-11T04:40:00.858Z,9.747459
2023-05-11T04:41:00.891Z,9.747390
2023-05-11T04:42:00.856Z,9.747357
2023-05-11T04:43:00.838Z,9.747317
2023-05-11T04:44:00.819Z,9.747433
2023-05-11T04:45:00.809Z,9.747413
2023-05-11T04:46:00.794Z,9.747450
2023-05-11T04:47:00.879Z,9.747442
2023-05-11T04:48:00.783Z,9.747521
2023-05-11T04:49:00.770Z,9.747471
2023-05-11T04:50:00.781Z,9.747486
2023-05-11T04:51:00.752Z,9.747568
2023-05-11T04:52:00.806Z,9.747422
2023-05-11T04:53:00.739Z,9.747383
2023-05-11T04:54:00.729Z,9.747562
2023-05-11T04:55:00.730Z,9.747521
2023-05-11T04:56:00.754Z,9.747437
2023-05-11T04:57:00.742Z,9.747452
2023-05-11T04:58:00.710Z,9.747473
2023-05-11T04:59:00.862Z,9.747321
2023-05-11T05:00:00.736Z,9.747315
2023-05-11T05:01:00.739Z,9.747422
2023-05-11T05:02:00.666Z,9.747458
2023-05-11T05:03:00.733Z,9.747494
2023-05-11T05:04:00.719Z,9.747573
2023-05-11T05:05:00.665Z,9.747592
2023-05-11T05:06:00.663Z,9.747540
2023-05-11T05:07:00.636Z,9.747285
2023-05-11T05:08:00.636Z,9.747446
2023-05-11T05:09:00.617Z,9.747325
2023-05-11T05:10:00.670Z,9.747306
2023-05-11T05:11:00.696Z,9.747407
2023-05-11T05:12:00.601Z,9.747414
2023-05-11T05:13:00.587Z,9.747379
2023-05-11T05:14:00.592Z,9.747403
2023-05-11T05:15:00.599Z,9.747430
2023-05-11T05:16:00.595Z,9.747368
2023-05-11T05:17:00.608Z,9.747317
2023-05-11T05:18:00.601Z,9.747297
2023-05-11T05:19:00.609Z,9.747396
2023-05-11T05:20:00.612Z,9.747434
2023-05-11T05:21:00.561Z,9.747390
2023-05-11T05:22:00.530Z,9.747301
2023-05-11T05:23:00.514Z,9.747336
2023-05-11T05:24:00.545Z,9.747377
2023-05-11T05:25:00.548Z,9.747416
2023-05-11T05:26:00.498Z,9.747494
2023-05-11T05:27:00.507Z,9.747484
2023-05-11T05:28:00.484Z,9.747462
2023-05-11T05:29:00.518Z,9.747382
2023-05-11T05:30:00.465Z,9.747285
2023-05-11T05:31:00.491Z,9.747313
2023-05-11T05:32:00.448Z,9.747201
2023-05-11T05:33:00.469Z,9.747353
2023-05-11T05:34:00.463Z,9.747354
2023-05-11T05:35:00.435Z,9.747458
2023-05-11T05:36:00.433Z,9.747372
2023-05-11T05:37:00.418Z,9.747361
2023-05-11T05:38:00.396Z,9.747306
2023-05-11T05:39:00.428Z,9.747315
2023-05-11T05:40:00.409Z,9.747315
2023-05-11T05:41:00.373Z,9.747379
2023-05-11T05:42:00.375Z,9.747348
2023-05-11T05:43:32.294Z,9.747381
2023-05-11T05:44:00.359Z,9.747400
2023-05-11T05:45:00.335Z,9.747287
2023-05-11T05:46:00.379Z,9.747396
2023-05-11T05:47:00.348Z,9.747354
2023-05-11T05:48:00.412Z,9.747325
2023-05-11T05:49:00.314Z,9.747356
2023-05-11T05:50:00.344Z,9.747365
2023-05-11T05:51:00.321Z,9.747434
2023-05-11T05:52:00.327Z,9.747369
2023-05-11T05:53:00.313Z,9.747379
2023-05-11T05:54:00.278Z,9.747384
2023-05-11T05:55:00.267Z,9.747359
2023-05-11T05:56:00.258Z,9.747353
2023-05-11T05:57:00.302Z,9.747390
2023-05-11T05:58:00.265Z,9.747355
2023-05-11T05:59:00.239Z,9.747357
2023-05-11T06:00:00.258Z,9.747339
2023-05-11T06:01:00.232Z,9.747382
2023-05-11T06:02:00.267Z,9.747273
2023-05-11T06:03:00.269Z,9.747339
2023-05-11T06:04:00.473Z,9.747375
2023-05-11T06:05:00.223Z,9.747308
2023-05-11T06:06:00.189Z,9.747320
2023-05-11T06:07:00.223Z,9.747298
2023-05-11T06:08:09.850Z,9.747330
2023-05-11T06:09:02.187Z,9.747420
2023-05-11T06:10:00.209Z,9.747376
2023-05-11T06:11:00.165Z,9.747363
2023-05-11T06:12:00.182Z,9.747292
2023-05-11T06:13:00.149Z,9.747374
2023-05-11T06:14:00.124Z,9.747425
2023-05-11T06:15:00.152Z,9.747376
2023-05-11T06:16:00.257Z,9.747369
2023-05-11T06:17:00.144Z,9.747345
2023-05-11T06:18:00.190Z,9.747438
2023-05-11T06:19:00.219Z,9.747316
2023-05-11T06:20:00.103Z,9.747346
2023-05-11T06:21:00.120Z,9.747477
2023-05-11T06:22:00.054Z,9.747628
2023-05-11T06:23:00.061Z,9.747517
2023-05-11T06:24:00.065Z,9.747498
2023-05-11T06:25:00.056Z,9.747456
2023-05-11T06:26:00.062Z,9.747351
2023-05-11T06:27:00.022Z,9.747479
2023-05-11T06:28:00.008Z,9.747563
2023-05-11T06:29:00.010Z,9.747496
2023-05-11T06:30:00.028Z,9.747512
2023-05-11T06:31:00.013Z,9.747553
2023-05-11T06:32:00.045Z,9.747575
2023-05-11T06:32:59.986Z,9.747677
2023-05-11T06:33:59.967Z,9.747612
2023-05-11T06:34:59.981Z,9.747681
2023-05-11T06:35:59.953Z,9.747455
2023-05-11T06:36:59.974Z,9.747627
2023-05-11T06:37:59.937Z,9.747614
2023-05-11T06:38:59.934Z,9.747478
2023-05-11T06:39:59.956Z,9.747497
2023-05-11T06:40:59.931Z,9.747617
2023-05-11T06:42:02.950Z,9.747630
2023-05-11T06:43:01.904Z,9.747631
2023-05-11T06:43:59.943Z,9.747538
2023-05-11T06:44:59.990Z,9.747588
2023-05-11T06:45:59.986Z,9.747587
2023-05-11T06:46:59.959Z,9.747582
2023-05-11T06:47:59.912Z,9.747515
2023-05-11T06:48:59.878Z,9.747616
2023-05-11T06:49:59.880Z,9.747576
2023-05-11T06:50:59.840Z,9.747510
2023-05-11T06:51:59.829Z,9.747533
2023-05-11T06:52:59.842Z,9.747516
2023-05-11T06:53:59.861Z,9.747479
2023-05-11T06:54:59.817Z,9.747531
2023-05-11T06:55:59.809Z,9.747581
2023-05-11T06:56:59.796Z,9.747438
2023-05-11T06:57:59.829Z,9.747664
2023-05-11T06:58:59.784Z,9.747543
2023-05-11T06:59:59.779Z,9.747543
2023-05-11T07:00:59.788Z,9.747462
2023-05-11T07:01:59.750Z,9.747514
2023-05-11T07:02:59.814Z,9.747528
2023-05-11T07:03:59.747Z,9.747608
2023-05-11T07:04:59.812Z,9.747523
2023-05-11T07:05:59.720Z,9.747581
2023-05-11T07:06:59.729Z,9.747608
2023-05-11T07:07:59.724Z,9.747582
2023-05-11T07:08:59.694Z,9.747616
2023-05-11T07:09:59.699Z,9.747488
2023-05-11T07:10:59.684Z,9.747566
2023-05-11T07:11:59.701Z,9.747372
2023-05-11T07:12:59.696Z,9.747501
2023-05-11T07:13:59.656Z,9.747580
2023-05-11T07:14:59.656Z,9.747588
2023-05-11T07:15:59.647Z,9.747564
2023-05-11T07:16:59.695Z,9.747539
2023-05-11T07:17:59.657Z,9.747574
2023-05-11T07:18:59.654Z,9.747520
2023-05-11T07:19:59.609Z,9.747552
2023-05-11T07:20:59.596Z,9.747519
2023-05-11T07:21:59.622Z,9.747402
2023-05-11T07:22:59.608Z,9.747374
2023-05-11T07:23:59.805Z,9.747504
2023-05-11T07:24:59.602Z,9.747357
2023-05-11T07:25:59.605Z,9.747481
2023-05-11T07:26:59.574Z,9.747440
2023-05-11T07:27:59.552Z,9.747383
2023-05-11T07:28:59.547Z,9.747479
2023-05-11T07:29:59.540Z,9.747238
2023-05-11T07:30:59.639Z,9.747488
2023-05-11T07:31:59.516Z,9.747486
2023-05-11T07:32:59.545Z,9.747240
2023-05-11T07:33:59.498Z,9.747484
2023-05-11T07:34:59.502Z,9.747516
2023-05-11T07:35:59.506Z,9.747527
2023-05-11T07:36:59.477Z,9.747439
2023-05-11T07:37:59.471Z,9.747421
2023-05-11T07:38:59.480Z,9.747467
2023-05-11T07:39:59.473Z,9.747611
2023-05-11T07:40:59.486Z,9.747607
2023-05-11T07:41:59.447Z,9.747519
2023-05-11T07:42:59.442Z,9.747536
2023-05-11T07:43:59.433Z,9.747559
2023-05-11T07:44:59.452Z,9.747499
2023-05-11T07:45:59.450Z,9.747422
2023-05-11T07:46:59.403Z,9.747548
2023-05-11T07:47:59.427Z,9.747561
2023-05-11T07:49:11.286Z,9.747559
2023-05-11T07:50:01.438Z,9.747474
2023-05-11T07:50:59.373Z,9.747602
2023-05-11T07:51:59.597Z,9.747544
2023-05-11T07:52:59.373Z,9.747624
2023-05-11T07:53:59.385Z,9.747485
2023-05-11T07:54:59.401Z,9.747465
2023-05-11T07:55:59.338Z,9.747554
2023-05-11T07:56:59.342Z,9.747590
2023-05-11T07:57:59.314Z,9.747493
2023-05-11T07:58:59.347Z,9.747505
2023-05-11T07:59:59.307Z,9.747528
2023-05-11T08:00:59.304Z,9.747569
2023-05-11T08:01:59.400Z,9.747512
2023-05-11T08:02:59.669Z,9.747600
2023-05-11T08:03:59.320Z,9.747596
2023-05-11T08:04:59.278Z,9.747556
2023-05-11T08:05:59.294Z,9.747421
2023-05-11T08:06:59.258Z,9.747470
2023-05-11T08:07:59.271Z,9.747570
2023-05-11T08:08:59.267Z,9.747578
2023-05-11T08:09:59.240Z,9.747482
2023-05-11T08:10:59.223Z,9.747325
2023-05-11T08:11:59.230Z,9.747463
2023-05-11T08:12:59.237Z,9.747503
2023-05-11T08:13:59.241Z,9.747403
2023-05-11T08:14:59.208Z,9.747444
2023-05-11T08:15:59.207Z,9.747363
2023-05-11T08:16:59.173Z,9.747448
2023-05-11T08:18:00.364Z,9.747366
2023-05-11T08:18:59.222Z,9.747426
2023-05-11T08:19:59.170Z,9.747380
2023-05-11T08:20:59.159Z,9.747454
2023-05-11T08:21:59.148Z,9.747409
2023-05-11T08:22:59.162Z,9.747430
2023-05-11T08:23:59.124Z,9.747347
2023-05-11T08:24:59.115Z,9.747442
2023-05-11T08:25:59.112Z,9.747453
2023-05-11T08:26:59.152Z,9.747439
2023-05-11T08:27:59.120Z,9.747454
2023-05-11T08:28:59.099Z,9.747433
2023-05-11T08:30:00.228Z,9.747361
2023-05-11T08:30:59.083Z,9.747395
2023-05-11T08:31:59.121Z,9.747494
2023-05-11T08:32:59.684Z,9.747417
2023-05-11T08:33:59.180Z,9.747440
2023-05-11T08:34:59.140Z,9.747531
2023-05-11T08:35:59.038Z,9.747409
2023-05-11T08:36:59.063Z,9.747423
2023-05-11T08:37:59.047Z,9.747528
2023-05-11T08:38:59.422Z,9.747494
2023-05-11T08:40:00.019Z,9.747500
2023-05-11T08:40:59.034Z,9.747519
2023-05-11T08:41:59.043Z,9.747530
2023-05-11T08:42:58.988Z,9.747483
2023-05-11T08:43:58.987Z,9.747515
2023-05-11T08:44:58.976Z,9.747494
2023-05-11T08:45:59.108Z,9.747575
2023-05-11T08:47:17.075Z,9.747518
2023-05-11T08:48:01.034Z,9.747570
2023-05-11T08:48:58.939Z,9.747447
2023-05-11T08:49:58.920Z,9.747508
2023-05-11T08:50:58.955Z,9.747467
2023-05-11T08:51:58.912Z,9.747420
2023-05-11T08:52:58.905Z,9.747571
2023-05-11T08:53:58.889Z,9.747499
2023-05-11T08:54:58.892Z,9.747476
2023-05-11T08:55:58.907Z,9.747424
2023-05-11T08:56:58.872Z,9.747458
2023-05-11T08:57:58.861Z,9.747443
2023-05-11T08:58:58.877Z,9.747449
2023-05-11T08:59:58.909Z,9.747577
2023-05-11T09:00:58.886Z,9.747578
2023-05-11T09:01:58.836Z,9.747546
2023-05-11T09:02:58.900Z,9.747506
2023-05-11T09:03:58.822Z,9.747568
2023-05-11T09:04:58.859Z,9.747448
2023-05-11T09:05:58.825Z,9.747457
2023-05-11T09:06:58.786Z,9.747519
2023-05-11T09:07:58.797Z,9.747455
2023-05-11T09:08:58.809Z,9.747370
2023-05-11T09:09:58.810Z,9.747416
2023-05-11T09:10:58.763Z,9.747442
2023-05-11T09:11:58.767Z,9.747496
2023-05-11T09:12:58.743Z,9.747429
2023-05-11T09:13:58.780Z,9.747348
2023-05-11T09:15:59.769Z,9.747388
2023-05-11T09:16:58.864Z,9.747361
2023-05-11T09:17:58.746Z,9.747352
2023-05-11T09:18:58.863Z,9.747350
2023-05-11T09:19:58.689Z,9.747327
2023-05-11T09:20:58.676Z,9.747369
2023-05-11T09:21:58.669Z,9.747405
2023-05-11T09:22:58.666Z,9.747410
2023-05-11T09:23:58.680Z,9.747448
2023-05-11T09:24:58.678Z,9.747410
2023-05-11T09:25:58.655Z,9.747490
2023-05-11T09:26:58.632Z,9.747393
2023-05-11T09:27:58.661Z,9.747409
2023-05-11T09:29:59.615Z,9.747387
2023-05-11T09:30:58.641Z,9.747424
2023-05-11T09:31:58.601Z,9.747353
2023-05-11T09:32:58.640Z,9.747439
2023-05-11T09:34:00.809Z,9.747400
2023-05-11T09:34:59.572Z,9.747385
2023-05-11T09:35:58.566Z,9.747469
2023-05-11T09:36:58.563Z,9.747441
2023-05-11T09:37:58.578Z,9.747424
2023-05-11T09:38:58.544Z,9.747418
2023-05-11T09:40:25.811Z,9.747473
2023-05-11T09:41:00.559Z,9.747420
2023-05-11T09:41:58.535Z,9.747460
2023-05-11T09:42:58.547Z,9.747420
2023-05-11T09:43:58.507Z,9.747375
2023-05-11T09:44:58.539Z,9.747443
2023-05-11T09:45:58.513Z,9.747433
2023-05-11T09:46:58.518Z,9.747426
2023-05-11T09:47:58.505Z,9.747423
2023-05-11T09:48:58.465Z,9.747432
2023-05-11T09:49:58.475Z,9.747433
2023-05-11T09:50:58.456Z,9.747486
2023-05-11T09:51:58.489Z,9.747519
2023-05-11T09:52:58.440Z,9.747558
2023-05-11T09:53:58.448Z,9.747498
2023-05-11T09:54:58.427Z,9.747451
2023-05-11T09:55:58.425Z,9.747419
2023-05-11T09:56:58.443Z,9.747433
2023-05-11T09:57:58.399Z,9.747377
2023-05-11T09:58:58.414Z,9.747412
2023-05-11T09:59:58.376Z,9.747407
2023-05-11T10:00:58.407Z,9.747469
2023-05-11T10:01:58.555Z,9.747405
2023-05-11T10:02:58.457Z,9.747416
2023-05-11T10:04:09.587Z,9.747425
2023-05-11T10:05:00.417Z,9.747471
2023-05-11T10:05:58.366Z,9.747571
2023-05-11T10:06:58.331Z,9.747420
2023-05-11T10:07:58.329Z,9.747323
2023-05-11T10:08:58.321Z,9.747414
2023-05-11T10:09:58.322Z,9.747363
2023-05-11T10:10:58.341Z,9.747462
2023-05-11T10:11:58.307Z,9.747396
2023-05-11T10:12:58.290Z,9.747410
2023-05-11T10:13:58.296Z,9.747415
2023-05-11T10:14:58.299Z,9.747440
2023-05-11T10:15:58.322Z,9.747408
2023-05-11T10:16:58.261Z,9.747386
2023-05-11T10:17:58.419Z,9.747385
2023-05-11T10:18:58.354Z,9.747408
2023-05-11T10:19:58.262Z,9.747401
2023-05-11T10:20:58.288Z,9.747368
2023-05-11T10:21:58.238Z,9.747386
2023-05-11T10:22:58.799Z,9.747396
2023-05-11T10:23:58.242Z,9.747221
2023-05-11T10:24:58.249Z,9.747335
2023-05-11T10:25:58.866Z,9.747392
2023-05-11T10:26:58.191Z,9.747345
2023-05-11T10:27:58.191Z,9.747420
2023-05-11T10:28:58.224Z,9.747478
2023-05-11T10:29:58.180Z,9.747352
2023-05-11T10:30:58.194Z,9.747351
2023-05-11T10:31:58.170Z,9.747456
2023-05-11T10:32:58.207Z,9.747322
2023-05-11T10:33:58.156Z,9.747342
2023-05-11T10:34:58.123Z,9.747342
2023-05-11T10:35:58.132Z,9.747519
2023-05-11T10:36:58.112Z,9.747281
2023-05-11T10:37:58.106Z,9.747299
2023-05-11T10:38:58.123Z,9.747313
2023-05-11T10:39:58.086Z,9.747412
2023-05-11T10:40:58.073Z,9.747501
2023-05-11T10:41:58.094Z,9.747465
2023-05-11T10:42:58.094Z,9.747328
2023-05-11T10:43:58.081Z,9.747463
2023-05-11T10:44:58.049Z,9.747531
2023-05-11T10:45:58.828Z,9.747317
2023-05-11T10:46:58.025Z,9.747391
2023-05-11T10:47:58.158Z,9.747276
2023-05-11T10:48:58.012Z,9.747329
2023-05-11T10:49:58.003Z,9.747314
2023-05-11T10:50:57.989Z,9.747380
2023-05-11T10:51:57.997Z,9.747311
2023-05-11T10:52:58.015Z,9.747359
2023-05-11T10:53:57.975Z,9.747260
2023-05-11T10:54:57.968Z,9.747255
2023-05-11T10:55:57.946Z,9.747323
2023-05-11T10:56:57.948Z,9.747256
2023-05-11T10:57:57.966Z,9.747215
2023-05-11T10:58:57.934Z,9.747162
2023-05-11T10:59:57.937Z,9.747231
2023-05-11T11:00:58.056Z,9.747277
2023-05-11T11:01:57.980Z,9.747283
2023-05-11T11:02:57.965Z,9.747232
2023-05-11T11:03:57.892Z,9.747170
2023-05-11T11:04:57.891Z,9.747303
2023-05-11T11:06:00.577Z,9.747349
2023-05-11T11:06:58.891Z,9.747302
2023-05-11T11:07:57.857Z,9.747220
2023-05-11T11:08:57.865Z,9.747268
2023-05-11T11:09:57.852Z,9.747362
2023-05-11T11:10:57.841Z,9.747301
2023-05-11T11:11:57.866Z,9.747264
2023-05-11T11:12:57.828Z,9.747301
2023-05-11T11:13:57.827Z,9.747424
2023-05-11T11:14:57.813Z,9.747309
2023-05-11T11:15:57.831Z,9.747387
2023-05-11T11:16:57.861Z,9.747415
2023-05-11T11:17:57.868Z,9.747210
2023-05-11T11:18:57.865Z,9.747197
2023-05-11T11:19:57.776Z,9.747274
2023-05-11T11:20:57.783Z,9.747108
2023-05-11T11:21:59.318Z,9.747266
2023-05-11T11:22:58.748Z,9.747284
2023-05-11T11:23:57.749Z,9.747347
2023-05-11T11:24:57.745Z,9.747334
2023-05-11T11:25:58.227Z,9.747376
2023-05-11T11:26:57.722Z,9.747378
2023-05-11T11:27:57.703Z,9.747276
2023-05-11T11:28:57.720Z,9.747391
2023-05-11T11:29:57.699Z,9.747325
2023-05-11T11:30:57.745Z,9.747304
2023-05-11T11:31:57.676Z,9.747386
2023-05-11T11:32:57.723Z,9.747260
2023-05-11T11:33:57.697Z,9.747446
2023-05-11T11:34:57.681Z,9.747344
2023-05-11T11:35:57.693Z,9.747210
2023-05-11T11:36:57.642Z,9.747057
2023-05-11T11:37:57.635Z,9.747344
2023-05-11T11:38:57.661Z,9.747332
2023-05-11T11:40:02.869Z,9.747495
2023-05-11T11:40:59.624Z,9.747319
2023-05-11T11:41:57.606Z,9.747194
2023-05-11T11:42:57.598Z,9.747322
2023-05-11T11:44:29.534Z,9.747309
2023-05-11T11:44:57.605Z,9.747369
2023-05-11T11:45:57.577Z,9.747534